Ban Baen Chado, Thailand

6:37 AM +07 on 四月 29, 2017 (GMT +0700)
นวมินทร์ 74 แยก 3-8-21 | | Change Station

高度 13 ft 13.81 °N, 100.67 °E | Updated 5 minutes ago

晴
81.1 °F
体感気温 86 °F
0.0
風 変数 風 から
Gusts 0.6 Mph

今日
高い -- | 低 -- °F
--% 降水確率
昨日
高い -- | 低 -- °F
Precip. -- インチ
気圧 29.86 インチ
視程 5.0 マイル
わずか 2000 ft
体感気温(暑さ) 86 °F
露点温度 74 °F
湿度 79%
降水 0.00 インチ
積雪深 利用不可。
5:56 AM 6:32 PM
三日月, 9% visible
METAR VTBD 282300Z 01004KT 320V060 8000 FEW020 26/25 Q1011 NOSIG
気圧 29.86 インチ
視程 5.0 マイル
わずか 2000 ft
体感気温(暑さ) 86 °F
露点温度 74 °F
湿度 79%
降水 0.00 インチ
積雪深 利用不可。
5:56 AM 6:32 PM
三日月, 9% visible
METAR VTBD 282300Z 01004KT 320V060 8000 FEW020 26/25 Q1011 NOSIG

Get Severe Weather Alerts

Thanks for signing up!

Be on the lookout for a verification email in your inbox.

You'll start receiving the daily forecast at 8 AM.

×

10-Day Weather Forecast

No radar image for this location.
×

Almanac

天文

Apr. 29, 2017 入り
実時間
常用薄明
航海薄明
天文薄明
可視光の長さ
可照時間
Tomorrow will be .
, % of the Moon is Illuminated

今日の極値

Country Highs Country Lows

Community

WunderBlog® & News

Nearby

空気品質

  空気品質 大気質指数 汚染物質
Not available.

積雪深

Station Depth 高度

地震活動

Distance Mag. Time & Date
Minimum magnitude displayed is 2.5.

沿岸の水温

地名 気温

Stations

最寄りの気象観測所

観測所位置 温度 体感気温(寒さ) 露点温度 湿度 Precip. 高度 更新日時 タイプする